createdAt,value
2022-12-24T00:00:50.098Z,10.50
2022-12-24T00:05:01.528Z,9.90
2022-12-24T00:09:12.799Z,9.10
2022-12-24T00:13:21.103Z,8.70
2022-12-24T00:17:29.127Z,8.20
2022-12-24T00:21:36.882Z,8.60
2022-12-24T00:25:44.808Z,7.20
2022-12-24T00:29:52.799Z,8.10
2022-12-24T00:34:00.541Z,8.10
2022-12-24T00:38:12.405Z,7.80
2022-12-24T00:42:19.993Z,7.80
2022-12-24T00:46:29.659Z,7.80
2022-12-24T00:50:38.202Z,7.70
2022-12-24T00:54:46.284Z,7.90
2022-12-24T00:58:54.845Z,8.50
2022-12-24T01:03:02.918Z,9.30
2022-12-24T01:07:10.516Z,7.30
2022-12-24T01:11:18.806Z,6.70
2022-12-24T01:15:26.706Z,6.70
2022-12-24T01:19:34.760Z,6.60
2022-12-24T01:23:42.406Z,6.70
2022-12-24T01:27:49.729Z,6.90
2022-12-24T01:31:58.234Z,6.30
2022-12-24T01:36:07.893Z,6.50
2022-12-24T01:40:38.372Z,6.50
2022-12-24T01:44:52.987Z,7.00
2022-12-24T01:49:03.648Z,7.80
2022-12-24T01:53:12.332Z,7.40
2022-12-24T01:57:22.007Z,7.10
2022-12-24T02:01:30.014Z,7.30
2022-12-24T02:05:42.174Z,5.80
2022-12-24T02:09:50.845Z,6.40
2022-12-24T02:14:00.335Z,6.60
2022-12-24T02:18:11.554Z,5.10
2022-12-24T02:22:22.864Z,5.20
2022-12-24T02:26:40.836Z,6.60
2022-12-24T02:30:50.891Z,7.20
2022-12-24T02:35:07.849Z,6.80
2022-12-24T02:39:19.088Z,5.00
2022-12-24T02:43:30.657Z,4.70
2022-12-24T02:47:41.723Z,3.80
2022-12-24T02:51:50.232Z,3.40
2022-12-24T02:56:10.887Z,3.70
2022-12-24T03:00:20.779Z,3.10
2022-12-24T03:04:42.519Z,4.00
2022-12-24T03:08:55.624Z,2.80
2022-12-24T03:13:06.874Z,2.60
2022-12-24T03:17:15.045Z,2.30
2022-12-24T03:21:27.472Z,2.10
2022-12-24T03:25:36.095Z,1.50
2022-12-24T03:29:44.734Z,1.50
2022-12-24T03:33:54.380Z,1.60
2022-12-24T03:38:04.139Z,1.70
2022-12-24T03:42:12.924Z,1.70
2022-12-24T03:46:20.648Z,1.60
2022-12-24T03:50:28.219Z,1.60
2022-12-24T03:54:36.211Z,2.00
2022-12-24T03:58:44.696Z,1.80
2022-12-24T04:02:52.846Z,1.80
2022-12-24T04:07:02.041Z,1.80
2022-12-24T04:11:10.960Z,2.10
2022-12-24T04:15:20.061Z,1.90
2022-12-24T04:19:28.372Z,2.40
2022-12-24T04:23:37.227Z,2.40
2022-12-24T04:27:45.013Z,2.10
2022-12-24T04:31:52.772Z,1.90
2022-12-24T04:36:03.005Z,1.90
2022-12-24T04:40:13.118Z,2.00
2022-12-24T04:44:21.438Z,1.60
2022-12-24T04:48:28.908Z,1.60
2022-12-24T04:52:36.730Z,1.50
2022-12-24T04:56:45.151Z,1.70
2022-12-24T05:00:52.945Z,1.70
2022-12-24T05:05:01.248Z,1.90
2022-12-24T05:09:09.213Z,1.40
2022-12-24T05:13:16.910Z,1.90
2022-12-24T05:17:24.757Z,2.10
2022-12-24T05:21:32.921Z,1.70
2022-12-24T05:26:00.131Z,2.00
2022-12-24T05:30:10.899Z,2.20
2022-12-24T05:34:19.895Z,1.60
2022-12-24T05:38:27.842Z,1.70
2022-12-24T05:42:35.671Z,1.70
2022-12-24T05:46:43.418Z,2.30
2022-12-24T05:50:51.866Z,1.50
2022-12-24T05:54:59.661Z,1.30
2022-12-24T05:59:08.034Z,2.60
2022-12-24T06:03:17.430Z,1.70
2022-12-24T06:07:25.165Z,1.10
2022-12-24T06:11:33.153Z,1.60
2022-12-24T06:15:40.993Z,1.60
2022-12-24T06:19:49.866Z,1.80
2022-12-24T06:23:57.823Z,1.80
2022-12-24T06:28:05.875Z,1.40
2022-12-24T06:32:14.007Z,1.20
2022-12-24T06:36:24.483Z,1.30
2022-12-24T06:40:32.639Z,1.20
2022-12-24T06:44:43.939Z,1.50
2022-12-24T06:48:51.788Z,1.40
2022-12-24T06:52:59.860Z,1.00
2022-12-24T06:57:08.205Z,1.10
2022-12-24T07:01:19.623Z,1.10
2022-12-24T07:05:28.459Z,1.10
2022-12-24T07:09:37.598Z,1.30
2022-12-24T07:13:45.725Z,0.90
2022-12-24T07:17:54.047Z,1.40
2022-12-24T07:22:01.750Z,1.20
2022-12-24T07:26:10.371Z,1.00
2022-12-24T07:30:21.653Z,0.70
2022-12-24T07:34:29.397Z,0.70
2022-12-24T07:38:40.037Z,0.80
2022-12-24T07:42:47.846Z,0.90
2022-12-24T07:46:56.337Z,0.90
2022-12-24T07:51:05.004Z,1.00
2022-12-24T07:55:14.291Z,0.90
2022-12-24T07:59:21.736Z,0.90
2022-12-24T08:03:31.560Z,1.20
2022-12-24T08:07:39.136Z,1.20
2022-12-24T08:11:51.904Z,1.30
2022-12-24T08:16:01.588Z,0.80
2022-12-24T08:20:14.651Z,1.30
2022-12-24T08:24:21.877Z,1.30
2022-12-24T08:28:30.611Z,1.00
2022-12-24T08:32:38.967Z,1.50
2022-12-24T08:36:46.564Z,1.40
2022-12-24T08:40:56.098Z,1.30
2022-12-24T08:45:05.620Z,1.50
2022-12-24T08:49:13.881Z,1.50
2022-12-24T08:53:22.087Z,1.10
2022-12-24T08:57:30.366Z,1.20
2022-12-24T09:01:39.242Z,1.30
2022-12-24T09:05:47.948Z,1.40
2022-12-24T09:09:56.020Z,1.30
2022-12-24T09:14:03.708Z,1.40
2022-12-24T09:18:12.153Z,1.40
2022-12-24T09:22:20.593Z,1.70
2022-12-24T09:26:30.449Z,1.30
2022-12-24T09:30:37.953Z,1.10
2022-12-24T09:34:45.771Z,1.10
2022-12-24T09:38:53.491Z,1.50
2022-12-24T09:43:03.002Z,1.60
2022-12-24T09:47:17.991Z,1.70
2022-12-24T09:51:30.804Z,1.70
2022-12-24T09:55:42.304Z,1.90
2022-12-24T09:59:51.203Z,1.70
2022-12-24T10:03:59.087Z,1.80
2022-12-24T10:08:15.620Z,1.80
2022-12-24T10:12:27.742Z,2.10
2022-12-24T10:16:44.303Z,2.10
2022-12-24T10:20:59.099Z,1.90
2022-12-24T10:25:14.571Z,2.10
2022-12-24T10:29:25.556Z,2.50
2022-12-24T10:33:36.952Z,2.70
2022-12-24T10:37:46.279Z,2.90
2022-12-24T10:41:58.400Z,2.50
2022-12-24T10:46:14.419Z,2.50
2022-12-24T10:50:31.258Z,2.60
2022-12-24T10:54:40.425Z,3.40
2022-12-24T10:58:52.991Z,3.40
2022-12-24T11:03:26.895Z,2.00
2022-12-24T11:07:36.582Z,2.90
2022-12-24T11:11:44.757Z,2.70
2022-12-24T11:16:01.067Z,2.20
2022-12-24T11:20:18.130Z,2.40
2022-12-24T11:24:29.966Z,2.20
2022-12-24T11:28:38.367Z,2.30
2022-12-24T11:32:47.747Z,1.90
2022-12-24T11:36:57.318Z,2.80
2022-12-24T11:41:08.774Z,3.00
2022-12-24T11:45:23.127Z,3.60
2022-12-24T11:49:33.047Z,3.40
2022-12-24T11:53:46.801Z,3.40
2022-12-24T11:57:59.544Z,3.00
2022-12-24T12:02:17.528Z,2.90
2022-12-24T12:06:30.811Z,2.80
2022-12-24T12:10:41.340Z,2.80
2022-12-24T12:14:54.396Z,3.40
2022-12-24T12:19:13.070Z,3.50
2022-12-24T12:23:28.033Z,2.90
2022-12-24T12:27:39.335Z,3.10
2022-12-24T12:31:50.931Z,3.70
2022-12-24T12:35:58.500Z,2.90
2022-12-24T12:40:09.949Z,2.90
2022-12-24T12:44:42.493Z,3.00
2022-12-24T12:49:13.707Z,2.40
2022-12-24T12:53:38.267Z,3.50
2022-12-24T12:57:48.159Z,3.50
2022-12-24T13:02:04.183Z,4.50
2022-12-24T13:06:26.243Z,3.30
2022-12-24T13:10:56.180Z,4.20
2022-12-24T13:15:22.563Z,4.10
2022-12-24T13:19:41.871Z,3.90
2022-12-24T13:23:49.882Z,3.70
2022-12-24T13:27:57.843Z,3.60
2022-12-24T13:32:42.776Z,3.00
2022-12-24T13:37:18.713Z,3.60
2022-12-24T13:41:59.633Z,4.10
2022-12-24T13:46:11.150Z,3.20
2022-12-24T13:50:31.224Z,3.30
2022-12-24T13:54:40.269Z,3.50
2022-12-24T13:58:50.226Z,2.30
2022-12-24T14:03:00.583Z,3.10
2022-12-24T14:07:09.685Z,3.40
2022-12-24T14:11:19.080Z,3.10
2022-12-24T14:16:05.643Z,3.30
2022-12-24T14:20:14.627Z,3.50
2022-12-24T14:24:25.219Z,2.00
2022-12-24T14:28:38.330Z,2.10
2022-12-24T14:32:47.848Z,2.70
2022-12-24T14:36:57.508Z,2.90
2022-12-24T14:41:11.637Z,3.10
2022-12-24T14:45:29.721Z,3.40
2022-12-24T14:49:48.718Z,3.10
2022-12-24T14:54:30.621Z,3.60
2022-12-24T14:58:40.250Z,3.70
2022-12-24T15:02:49.733Z,2.90
2022-12-24T15:06:59.838Z,2.90
2022-12-24T15:11:09.860Z,3.70
2022-12-24T15:15:21.278Z,3.30
2022-12-24T15:19:33.175Z,4.90
2022-12-24T15:23:46.439Z,4.40
2022-12-24T15:27:54.615Z,4.60
2022-12-24T15:32:05.337Z,4.80
2022-12-24T15:36:13.687Z,4.50
2022-12-24T15:40:26.048Z,5.20
2022-12-24T15:44:37.278Z,4.80
2022-12-24T15:48:48.631Z,4.50
2022-12-24T15:53:20.300Z,5.60
2022-12-24T15:57:32.029Z,5.40
2022-12-24T16:01:41.118Z,6.00
2022-12-24T16:05:55.508Z,5.20
2022-12-24T16:10:15.039Z,4.40
2022-12-24T16:14:24.623Z,3.60
2022-12-24T16:18:40.845Z,5.40
2022-12-24T16:22:51.356Z,5.30
2022-12-24T16:26:59.374Z,6.30
2022-12-24T16:31:07.661Z,5.70
2022-12-24T16:35:24.410Z,5.60
2022-12-24T16:39:34.764Z,6.10
2022-12-24T16:43:52.448Z,6.60
2022-12-24T16:48:01.759Z,7.10
2022-12-24T16:52:13.808Z,6.60
2022-12-24T16:56:22.982Z,6.10
2022-12-24T17:00:31.820Z,6.90
2022-12-24T17:04:39.992Z,7.20
2022-12-24T17:08:47.880Z,7.50
2022-12-24T17:12:56.096Z,10.00
2022-12-24T17:17:05.519Z,9.80
2022-12-24T17:21:14.565Z,7.40
2022-12-24T17:25:26.491Z,8.00
2022-12-24T17:29:34.396Z,8.50
2022-12-24T17:33:42.354Z,11.60
2022-12-24T17:37:50.333Z,12.50
2022-12-24T17:41:58.430Z,12.70
2022-12-24T17:46:10.758Z,11.70
2022-12-24T17:50:19.232Z,9.60
2022-12-24T17:54:27.476Z,8.90
2022-12-24T17:58:35.593Z,6.00
2022-12-24T18:02:43.926Z,4.80
2022-12-24T18:06:59.453Z,5.40
2022-12-24T18:11:16.335Z,5.50
2022-12-24T18:15:27.190Z,6.20
2022-12-24T18:19:35.469Z,5.90
2022-12-24T18:23:45.311Z,5.80
2022-12-24T18:27:54.220Z,5.50
2022-12-24T18:32:02.526Z,5.40
2022-12-24T18:36:11.916Z,4.70
2022-12-24T18:40:21.777Z,4.60
2022-12-24T18:44:29.371Z,4.90
2022-12-24T18:48:37.297Z,4.70
2022-12-24T18:52:45.116Z,4.80
2022-12-24T18:56:55.028Z,4.20
2022-12-24T19:01:02.897Z,4.70
2022-12-24T19:05:11.648Z,4.20
2022-12-24T19:09:19.642Z,4.30
2022-12-24T19:13:27.513Z,3.40
2022-12-24T19:17:35.484Z,2.60
2022-12-24T19:21:43.377Z,3.60
2022-12-24T19:25:51.687Z,3.60
2022-12-24T19:30:00.285Z,4.70
2022-12-24T19:34:10.031Z,4.00
2022-12-24T19:38:18.176Z,3.40
2022-12-24T19:42:26.233Z,4.00
2022-12-24T19:46:36.314Z,3.20
2022-12-24T19:50:44.571Z,2.80
2022-12-24T19:54:52.510Z,3.10
2022-12-24T19:59:01.114Z,3.20
2022-12-24T20:03:08.868Z,3.70
2022-12-24T20:07:16.950Z,3.00
2022-12-24T20:11:24.640Z,3.20
2022-12-24T20:15:33.819Z,3.30
2022-12-24T20:19:42.082Z,2.50
2022-12-24T20:23:50.086Z,2.80
2022-12-24T20:27:58.360Z,3.40
2022-12-24T20:32:08.235Z,2.40
2022-12-24T20:36:17.421Z,2.80
2022-12-24T20:40:32.007Z,3.40
2022-12-24T20:44:39.623Z,3.30
2022-12-24T20:48:47.244Z,2.90
2022-12-24T20:52:55.372Z,3.10
2022-12-24T20:57:03.950Z,2.40
2022-12-24T21:01:16.839Z,2.70
2022-12-24T21:05:27.104Z,2.10
2022-12-24T21:09:34.554Z,3.80
2022-12-24T21:13:43.263Z,7.30
2022-12-24T21:17:51.945Z,7.10
2022-12-24T21:22:00.500Z,4.60
2022-12-24T21:26:08.890Z,3.00
2022-12-24T21:30:18.415Z,3.00
2022-12-24T21:34:27.131Z,4.00
2022-12-24T21:38:37.472Z,3.90
2022-12-24T21:42:44.681Z,3.80
2022-12-24T21:46:53.781Z,4.90
2022-12-24T21:51:01.783Z,3.60
2022-12-24T21:55:11.440Z,3.10
2022-12-24T21:59:24.725Z,6.40
2022-12-24T22:03:34.444Z,4.30
2022-12-24T22:08:01.092Z,3.90
2022-12-24T22:12:11.346Z,4.40
2022-12-24T22:16:19.634Z,4.90
2022-12-24T22:20:27.922Z,4.60
2022-12-24T22:24:36.160Z,6.20
2022-12-24T22:28:43.890Z,3.60
2022-12-24T22:32:51.906Z,3.90
2022-12-24T22:37:03.258Z,3.50
2022-12-24T22:41:12.112Z,3.20
2022-12-24T22:45:22.556Z,3.30
2022-12-24T22:49:31.264Z,3.60
2022-12-24T22:53:39.616Z,3.90
2022-12-24T22:57:47.422Z,3.30
2022-12-24T23:01:56.615Z,4.00
2022-12-24T23:06:06.288Z,3.90
2022-12-24T23:10:14.923Z,3.60
2022-12-24T23:14:41.772Z,3.80
2022-12-24T23:18:49.432Z,2.70
2022-12-24T23:22:57.134Z,2.50
2022-12-24T23:27:05.613Z,3.20
2022-12-24T23:31:14.004Z,2.90
2022-12-24T23:35:22.372Z,3.10
2022-12-24T23:39:30.586Z,3.50
2022-12-24T23:43:39.626Z,4.50
2022-12-24T23:47:47.354Z,4.80
2022-12-24T23:51:54.927Z,3.90
2022-12-24T23:56:03.524Z,3.90
